createdAt,value
2023-03-16T00:02:48.683Z,9.73
2023-03-16T00:06:31.366Z,11.93
2023-03-16T00:10:14.588Z,8.07
2023-03-16T00:13:58.607Z,7.90
2023-03-16T00:17:42.648Z,7.47
2023-03-16T00:21:25.681Z,10.57
2023-03-16T00:25:09.870Z,7.87
2023-03-16T00:28:54.390Z,8.37
2023-03-16T00:32:38.606Z,9.83
2023-03-16T00:36:22.799Z,10.63
2023-03-16T00:40:07.839Z,9.23
2023-03-16T00:43:51.726Z,8.60
2023-03-16T00:47:38.399Z,8.70
2023-03-16T00:51:22.916Z,9.87
2023-03-16T00:55:06.220Z,8.60
2023-03-16T00:58:48.928Z,7.93
2023-03-16T01:02:31.577Z,8.00
2023-03-16T01:06:17.026Z,8.20
2023-03-16T01:10:01.162Z,9.20
2023-03-16T01:13:43.948Z,9.67
2023-03-16T01:17:26.847Z,9.77
2023-03-16T01:21:10.376Z,8.93
2023-03-16T01:24:53.114Z,10.07
2023-03-16T01:28:37.260Z,7.00
2023-03-16T01:32:19.955Z,9.17
2023-03-16T01:36:06.639Z,9.53
2023-03-16T01:39:49.458Z,9.23
2023-03-16T01:43:34.346Z,9.10
2023-03-16T01:47:18.422Z,11.53
2023-03-16T01:51:01.185Z,9.93
2023-03-16T01:54:47.395Z,8.87
2023-03-16T01:58:30.271Z,9.03
2023-03-16T02:02:14.945Z,10.47
2023-03-16T02:06:00.720Z,8.37
2023-03-16T02:09:46.248Z,11.13
2023-03-16T02:13:29.635Z,9.77
2023-03-16T02:17:12.952Z,9.97
2023-03-16T02:21:02.065Z,10.80
2023-03-16T02:24:44.812Z,11.30
2023-03-16T02:28:32.271Z,12.10
2023-03-16T02:32:16.565Z,12.27
2023-03-16T02:35:59.277Z,11.30
2023-03-16T02:39:44.000Z,13.60
2023-03-16T02:43:29.195Z,9.70
2023-03-16T02:47:16.591Z,10.63
2023-03-16T02:50:59.521Z,9.83
2023-03-16T02:54:42.173Z,10.23
2023-03-16T02:58:24.827Z,12.73
2023-03-16T03:02:09.215Z,14.27
2023-03-16T03:05:54.900Z,12.27
2023-03-16T03:09:37.549Z,11.93
2023-03-16T03:13:20.260Z,12.20
2023-03-16T03:17:04.215Z,12.87
2023-03-16T03:20:46.932Z,11.67
2023-03-16T03:24:31.722Z,9.43
2023-03-16T03:28:14.733Z,11.50
2023-03-16T03:31:57.478Z,12.97
2023-03-16T03:35:42.048Z,10.67
2023-03-16T03:39:25.152Z,11.23
2023-03-16T03:43:09.330Z,10.67
2023-03-16T03:46:52.632Z,14.37
2023-03-16T03:50:35.368Z,14.73
2023-03-16T03:54:18.248Z,15.63
2023-03-16T03:58:01.011Z,17.10
2023-03-16T04:01:45.122Z,20.70
2023-03-16T04:05:28.285Z,20.63
2023-03-16T04:09:11.458Z,20.37
2023-03-16T04:12:54.234Z,25.40
2023-03-16T04:16:36.916Z,20.60
2023-03-16T04:20:22.044Z,22.63
2023-03-16T04:24:05.243Z,22.00
2023-03-16T04:27:47.969Z,21.90
2023-03-16T04:31:30.683Z,20.03
2023-03-16T04:35:13.399Z,23.70
2023-03-16T04:38:57.427Z,19.53
2023-03-16T04:42:40.104Z,22.03
2023-03-16T04:46:22.858Z,20.20
2023-03-16T04:50:06.348Z,21.33
2023-03-16T04:53:49.160Z,21.87
2023-03-16T04:57:35.023Z,21.23
2023-03-16T05:01:18.305Z,22.53
2023-03-16T05:05:01.007Z,23.33
2023-03-16T05:08:43.692Z,20.60
2023-03-16T05:12:26.373Z,18.23
2023-03-16T05:16:10.466Z,20.70
2023-03-16T05:19:53.209Z,19.77
2023-03-16T05:23:36.750Z,19.17
2023-03-16T05:27:20.480Z,18.63
2023-03-16T05:31:03.755Z,18.23
2023-03-16T05:34:47.841Z,16.27
2023-03-16T05:38:31.880Z,16.87
2023-03-16T05:42:14.654Z,19.17
2023-03-16T05:45:58.102Z,17.23
2023-03-16T05:49:40.787Z,19.30
2023-03-16T05:53:29.160Z,18.57
2023-03-16T05:57:12.101Z,16.63
2023-03-16T06:00:55.688Z,14.87
2023-03-16T06:04:38.338Z,18.03
2023-03-16T06:08:21.051Z,16.03
2023-03-16T06:12:06.603Z,16.20
2023-03-16T06:15:50.305Z,16.97
2023-03-16T06:19:33.153Z,16.30
2023-03-16T06:23:15.829Z,17.43
2023-03-16T06:26:58.506Z,14.77
2023-03-16T06:30:42.744Z,18.33
2023-03-16T06:34:25.473Z,17.20
2023-03-16T06:38:08.527Z,16.87
2023-03-16T06:41:52.686Z,18.77
2023-03-16T06:45:35.381Z,17.67
2023-03-16T06:49:19.474Z,20.20
2023-03-16T06:53:02.191Z,24.83
2023-03-16T06:56:46.409Z,20.77
2023-03-16T07:00:30.859Z,21.87
2023-03-16T07:04:13.680Z,21.13
2023-03-16T07:07:58.075Z,21.70
2023-03-16T07:11:41.000Z,22.10
2023-03-16T07:15:26.711Z,25.10
2023-03-16T07:19:13.807Z,14.77
2023-03-16T07:22:58.083Z,18.00
2023-03-16T07:26:41.317Z,16.87
2023-03-16T07:30:25.392Z,17.27
2023-03-16T07:34:08.132Z,15.73
2023-03-16T07:37:51.393Z,15.50
2023-03-16T07:41:35.479Z,15.17
2023-03-16T07:45:18.229Z,13.77
2023-03-16T07:49:01.317Z,18.57
2023-03-16T07:52:44.060Z,19.37
2023-03-16T07:56:29.717Z,17.17
2023-03-16T08:00:16.758Z,18.27
2023-03-16T08:03:59.546Z,16.37
2023-03-16T08:07:42.294Z,17.27
2023-03-16T08:11:25.008Z,16.90
2023-03-16T08:15:08.995Z,14.67
2023-03-16T08:18:53.118Z,17.00
2023-03-16T08:22:37.223Z,18.07
2023-03-16T08:26:20.842Z,13.77
2023-03-16T08:30:06.129Z,15.03
2023-03-16T08:33:49.670Z,15.70
2023-03-16T08:37:33.676Z,15.23
2023-03-16T08:41:17.507Z,16.03
2023-03-16T08:45:00.984Z,14.03
2023-03-16T08:48:43.787Z,14.17
2023-03-16T08:52:26.558Z,14.07
2023-03-16T08:56:12.369Z,13.20
2023-03-16T08:59:55.036Z,13.93
2023-03-16T09:03:37.690Z,14.73
2023-03-16T09:07:20.649Z,14.57
2023-03-16T09:11:07.503Z,15.03
2023-03-16T09:14:51.594Z,14.47
2023-03-16T09:18:35.424Z,13.87
2023-03-16T09:22:18.473Z,12.77
2023-03-16T09:26:02.784Z,13.40
2023-03-16T09:29:45.597Z,13.00
2023-03-16T09:33:31.902Z,11.90
2023-03-16T09:37:15.487Z,13.93
2023-03-16T09:41:00.636Z,16.23
2023-03-16T09:44:48.840Z,15.37
2023-03-16T09:48:35.574Z,13.23
2023-03-16T09:52:26.534Z,13.90
2023-03-16T09:57:04.244Z,15.13
2023-03-16T10:01:41.864Z,18.67
2023-03-16T10:05:26.195Z,13.23
2023-03-16T10:09:22.434Z,13.83
2023-03-16T10:17:10.824Z,15.30
2023-03-16T10:20:55.981Z,14.23
2023-03-16T10:24:44.354Z,13.53
2023-03-16T10:28:28.921Z,13.47
2023-03-16T10:32:16.548Z,13.13
2023-03-16T10:36:03.814Z,11.77
2023-03-16T10:39:46.849Z,13.50
2023-03-16T10:43:32.139Z,11.93
2023-03-16T10:47:20.430Z,12.60
2023-03-16T10:51:08.240Z,13.83
2023-03-16T10:54:52.731Z,10.50
2023-03-16T10:58:36.548Z,15.33
2023-03-16T11:02:22.678Z,12.13
2023-03-16T11:06:08.960Z,13.10
2023-03-16T11:09:52.627Z,11.93
2023-03-16T11:13:38.754Z,12.97
2023-03-16T11:17:27.202Z,16.00
2023-03-16T11:21:16.383Z,13.67
2023-03-16T11:25:06.470Z,13.17
2023-03-16T11:28:53.254Z,12.60
2023-03-16T11:32:41.025Z,13.00
2023-03-16T11:36:39.301Z,12.90
2023-03-16T11:40:38.463Z,12.93
2023-03-16T11:44:28.072Z,11.23
2023-03-16T11:48:30.404Z,13.37
2023-03-16T11:52:18.535Z,13.30
2023-03-16T11:56:11.710Z,14.27
2023-03-16T12:00:05.873Z,11.63
2023-03-16T12:04:16.257Z,15.40
2023-03-16T12:08:11.010Z,11.60
2023-03-16T12:11:56.309Z,10.40
2023-03-16T12:15:42.413Z,15.47
2023-03-16T12:19:30.570Z,12.20
2023-03-16T12:23:15.895Z,9.77
2023-03-16T12:26:59.669Z,8.80
2023-03-16T12:30:49.002Z,9.30
2023-03-16T12:34:35.750Z,19.40
2023-03-16T12:38:27.439Z,9.47
2023-03-16T12:42:26.567Z,7.37
2023-03-16T12:46:11.917Z,9.13
2023-03-16T12:49:56.500Z,6.47
2023-03-16T12:53:48.557Z,5.50
2023-03-16T12:57:32.028Z,6.87
2023-03-16T13:01:16.931Z,10.23
2023-03-16T13:05:01.713Z,10.13
2023-03-16T13:08:51.421Z,7.13
2023-03-16T13:12:37.077Z,6.97
2023-03-16T13:16:28.314Z,6.50
2023-03-16T13:20:31.518Z,6.13
2023-03-16T13:24:28.482Z,5.50
2023-03-16T13:28:14.630Z,6.73
2023-03-16T13:31:59.356Z,5.47
2023-03-16T13:35:42.185Z,5.90
2023-03-16T13:39:28.349Z,5.53
2023-03-16T13:43:15.905Z,5.87
2023-03-16T13:46:59.012Z,5.70
2023-03-16T13:50:43.186Z,3.67
2023-03-16T13:54:29.764Z,6.90
2023-03-16T13:58:21.614Z,8.77
2023-03-16T14:02:04.350Z,5.93
2023-03-16T14:05:47.577Z,6.87
2023-03-16T14:09:34.535Z,4.43
2023-03-16T14:13:26.569Z,4.00
2023-03-16T14:17:12.844Z,4.60
2023-03-16T14:20:57.044Z,4.00
2023-03-16T14:24:41.651Z,4.13
2023-03-16T14:28:32.082Z,4.47
2023-03-16T14:32:23.438Z,4.93
2023-03-16T14:36:13.038Z,4.37
2023-03-16T14:40:06.014Z,3.80
2023-03-16T14:43:51.587Z,3.67
2023-03-16T14:47:41.782Z,2.30
2023-03-16T14:51:25.418Z,2.43
2023-03-16T14:55:14.646Z,4.63
2023-03-16T14:58:57.475Z,3.77
2023-03-16T15:02:42.167Z,3.03
2023-03-16T15:06:26.478Z,2.23
2023-03-16T15:10:22.016Z,6.97
2023-03-16T15:14:35.597Z,3.50
2023-03-16T15:18:18.502Z,3.57
2023-03-16T15:22:01.902Z,3.50
2023-03-16T15:25:46.607Z,3.20
2023-03-16T15:29:29.469Z,4.10
2023-03-16T15:33:12.779Z,1.83
2023-03-16T15:36:56.269Z,2.53
2023-03-16T15:40:40.617Z,4.50
2023-03-16T15:44:24.688Z,2.93
2023-03-16T15:48:10.758Z,3.17
2023-03-16T15:51:53.775Z,3.67
2023-03-16T15:55:38.334Z,2.53
2023-03-16T15:59:22.160Z,3.93
2023-03-16T16:03:08.022Z,4.07
2023-03-16T16:06:53.613Z,3.20
2023-03-16T16:10:36.519Z,5.83
2023-03-16T16:14:24.675Z,5.73
2023-03-16T16:18:24.545Z,2.50
2023-03-16T16:22:09.833Z,3.80
2023-03-16T16:25:53.148Z,4.23
2023-03-16T16:29:35.878Z,3.33
2023-03-16T16:33:24.935Z,4.47
2023-03-16T16:37:09.908Z,2.47
2023-03-16T16:40:53.509Z,2.60
2023-03-16T16:44:38.127Z,3.37
2023-03-16T16:48:32.849Z,3.75
2023-03-16T16:52:16.830Z,4.20
2023-03-16T16:55:59.815Z,3.40
2023-03-16T16:59:44.834Z,3.60
2023-03-16T17:03:30.496Z,5.77
2023-03-16T17:07:13.945Z,3.80
2023-03-16T17:10:57.143Z,4.60
2023-03-16T17:14:41.371Z,3.13
2023-03-16T17:18:24.388Z,3.50
2023-03-16T17:22:26.103Z,4.23
2023-03-16T17:26:15.929Z,5.47
2023-03-16T17:29:59.118Z,5.37
2023-03-16T17:33:42.228Z,4.63
2023-03-16T17:37:26.348Z,6.53
2023-03-16T17:41:21.572Z,4.37
2023-03-16T17:45:04.909Z,7.07
2023-03-16T17:48:47.817Z,5.87
2023-03-16T17:52:32.488Z,5.60
2023-03-16T17:56:19.700Z,5.63
2023-03-16T18:00:03.176Z,4.70
2023-03-16T18:03:46.168Z,9.03
2023-03-16T18:07:29.053Z,7.87
2023-03-16T18:11:17.679Z,7.00
2023-03-16T18:15:01.508Z,8.30
2023-03-16T18:18:44.618Z,4.93
2023-03-16T18:22:27.973Z,7.40
2023-03-16T18:26:11.636Z,4.87
2023-03-16T18:29:55.932Z,6.60
2023-03-16T18:33:40.992Z,5.77
2023-03-16T18:37:25.158Z,7.27
2023-03-16T18:41:16.890Z,5.80
2023-03-16T18:45:01.322Z,5.70
2023-03-16T18:48:44.039Z,4.80
2023-03-16T18:52:29.158Z,7.93
2023-03-16T18:56:19.671Z,7.80
2023-03-16T19:00:03.836Z,7.03
2023-03-16T19:03:46.635Z,8.90
2023-03-16T19:07:33.820Z,6.13
2023-03-16T19:11:18.059Z,7.30
2023-03-16T19:15:00.742Z,7.73
2023-03-16T19:18:43.874Z,7.87
2023-03-16T19:22:26.530Z,9.80
2023-03-16T19:26:09.539Z,7.97
2023-03-16T19:29:52.859Z,10.97
2023-03-16T19:33:35.533Z,8.90
2023-03-16T19:37:19.976Z,7.17
2023-03-16T19:41:02.749Z,13.43
2023-03-16T19:44:48.894Z,8.87
2023-03-16T19:48:33.743Z,9.90
2023-03-16T19:52:16.489Z,9.87
2023-03-16T19:56:01.448Z,8.17
2023-03-16T19:59:46.597Z,60.97
2023-03-16T20:03:29.582Z,26.83
2023-03-16T20:07:16.388Z,32.73
2023-03-16T20:11:04.239Z,28.13
2023-03-16T20:14:47.012Z,11.77
2023-03-16T20:18:30.020Z,12.77
2023-03-16T20:22:18.306Z,8.13
2023-03-16T20:26:03.161Z,7.77
2023-03-16T20:29:46.889Z,5.93
2023-03-16T20:33:29.805Z,7.43
2023-03-16T20:37:23.770Z,8.17
2023-03-16T20:41:13.274Z,8.10
2023-03-16T20:44:56.313Z,6.67
2023-03-16T20:48:38.991Z,8.77
2023-03-16T20:52:23.509Z,6.77
2023-03-16T20:56:10.850Z,6.53
2023-03-16T20:59:57.070Z,12.70
2023-03-16T21:03:39.758Z,6.97
2023-03-16T21:07:23.044Z,8.57
2023-03-16T21:11:10.218Z,8.13
2023-03-16T21:14:52.910Z,8.10
2023-03-16T21:18:35.974Z,11.00
2023-03-16T21:22:29.557Z,10.90
2023-03-16T21:26:16.416Z,10.83
2023-03-16T21:30:18.473Z,10.23
2023-03-16T21:34:01.881Z,13.13
2023-03-16T21:37:45.102Z,8.70
2023-03-16T21:41:29.092Z,9.03
2023-03-16T21:45:12.626Z,7.67
2023-03-16T21:48:56.316Z,7.30
2023-03-16T21:52:40.131Z,9.00
2023-03-16T21:56:26.026Z,7.93
2023-03-16T22:00:17.066Z,9.00
2023-03-16T22:04:03.770Z,11.17
2023-03-16T22:07:46.596Z,9.97
2023-03-16T22:11:30.811Z,8.00
2023-03-16T22:15:15.144Z,11.87
2023-03-16T22:18:58.608Z,8.93
2023-03-16T22:22:41.441Z,9.80
2023-03-16T22:26:24.861Z,7.30
2023-03-16T22:30:09.012Z,11.97
2023-03-16T22:33:53.157Z,6.80
2023-03-16T22:37:36.013Z,7.80
2023-03-16T22:41:18.733Z,6.30
2023-03-16T22:45:03.855Z,7.13
2023-03-16T22:48:46.574Z,8.53
2023-03-16T22:52:33.308Z,9.40
2023-03-16T22:56:16.169Z,7.87
2023-03-16T22:59:59.778Z,8.37
2023-03-16T23:03:42.584Z,7.40
2023-03-16T23:07:25.264Z,9.40
2023-03-16T23:11:14.296Z,8.27
2023-03-16T23:14:57.336Z,8.23
2023-03-16T23:18:39.988Z,8.90
2023-03-16T23:22:25.627Z,8.53
2023-03-16T23:26:16.235Z,8.17
2023-03-16T23:29:58.985Z,8.77
2023-03-16T23:33:42.180Z,8.80
2023-03-16T23:37:24.954Z,9.70
2023-03-16T23:41:07.907Z,8.50
2023-03-16T23:44:51.916Z,9.27
2023-03-16T23:48:34.817Z,8.97
2023-03-16T23:52:17.624Z,9.17
2023-03-16T23:56:00.873Z,9.20
2023-03-16T23:59:43.512Z,9.93
